BAW983 EGKK-EDDF
Flight info
| Callsign | BAW983 |
|---|---|
| Flight time | N/A |
| Altitude | 35000 |
| Route | MIMFO Y312 DVR UL9 KONAN UL607 KOK DCT REMBA UL607 SPI T180 NIVNU/N0411F230 T847 IMCOM IMCOM1B |
| Aircraft | B739/M-SDE2E3FGHIRWXY/LB1 |
Departure
| Time | 2026-04-17 12:24 |
|---|---|
| Airport | London Gatwick Airport (EGKK) |
Arrival
| Time | N/A |
|---|---|
| Airport | Frankfurt Main Airport (EDDF) |
| Time | Latitude | Longitude | Altitude | Speed | Heading |
|---|---|---|---|---|---|
| 2026-04-17 12:05 | 51.15520 | -0.16659 | 204 ft | 0 kts | 347° |
| 2026-04-17 12:16 | 51.15507 | -0.16655 | 213 ft | 2 kts | 347° |
| 2026-04-17 12:16 | 51.15491 | -0.16649 | 211 ft | 2 kts | 347° |
| 2026-04-17 12:16 | 51.15474 | -0.16643 | 215 ft | 2 kts | 347° |
| 2026-04-17 12:16 | 51.15459 | -0.16634 | 212 ft | 2 kts | 292° |
| 2026-04-17 12:17 | 51.15457 | -0.16608 | 212 ft | 2 kts | 262° |
| 2026-04-17 12:17 | 51.15458 | -0.16597 | 211 ft | 0 kts | 259° |
| 2026-04-17 12:20 | 51.15457 | -0.16608 | 212 ft | 5 kts | 259° |
| 2026-04-17 12:20 | 51.15449 | -0.16668 | 213 ft | 6 kts | 259° |
| 2026-04-17 12:20 | 51.15431 | -0.16718 | 210 ft | 5 kts | 206° |
| 2026-04-17 12:21 | 51.15393 | -0.16714 | 209 ft | 5 kts | 168° |
| 2026-04-17 12:21 | 51.15356 | -0.16701 | 204 ft | 5 kts | 163° |
| 2026-04-17 12:21 | 51.15347 | -0.16696 | 204 ft | 1 kts | 161° |
| 2026-04-17 12:21 | 51.15304 | -0.16676 | 204 ft | 10 kts | 167° |
| 2026-04-17 12:22 | 51.15234 | -0.16652 | 209 ft | 10 kts | 168° |
| 2026-04-17 12:22 | 51.15167 | -0.16633 | 204 ft | 10 kts | 180° |
| 2026-04-17 12:22 | 51.15135 | -0.16702 | 204 ft | 0 kts | 263° |
| 2026-04-17 12:23 | 51.15135 | -0.16709 | 204 ft | 6 kts | 260° |
| 2026-04-17 12:23 | 51.15080 | -0.17112 | 207 ft | 76 kts | 257° |
| 2026-04-17 12:23 | 51.14910 | -0.18318 | 209 ft | 143 kts | 256° |
| 2026-04-17 12:24 | 51.14697 | -0.20068 | 535 ft | 172 kts | 257° |
| 2026-04-17 12:24 | 51.14515 | -0.22101 | 1159 ft | 194 kts | 257° |
| 2026-04-17 12:24 | 51.14288 | -0.24326 | 1927 ft | 214 kts | 258° |
| 2026-04-17 12:24 | 51.14065 | -0.26688 | 2988 ft | 210 kts | 256° |
| 2026-04-17 12:25 | 51.13946 | -0.29000 | 3636 ft | 214 kts | 278° |
| 2026-04-17 12:25 | 51.14646 | -0.31099 | 4023 ft | 228 kts | 310° |
| 2026-04-17 12:25 | 51.16065 | -0.32352 | 4090 ft | 239 kts | 348° |
| 2026-04-17 12:25 | 51.17707 | -0.32102 | 4717 ft | 245 kts | 20° |
| 2026-04-17 12:26 | 51.19077 | -0.30463 | 5345 ft | 254 kts | 56° |
| 2026-04-17 12:26 | 51.19685 | -0.27855 | 6025 ft | 253 kts | 83° |
| 2026-04-17 12:26 | 51.19939 | -0.25049 | 6681 ft | 258 kts | 83° |
| 2026-04-17 12:26 | 51.20193 | -0.22221 | 7294 ft | 264 kts | 83° |
| 2026-04-17 12:27 | 51.20485 | -0.19195 | 7738 ft | 281 kts | 81° |
| 2026-04-17 12:27 | 51.20867 | -0.16089 | 8147 ft | 294 kts | 79° |
| 2026-04-17 12:27 | 51.21302 | -0.12830 | 8721 ft | 300 kts | 79° |
| 2026-04-17 12:27 | 51.21741 | -0.09535 | 9314 ft | 307 kts | 79° |
| 2026-04-17 12:28 | 51.22186 | -0.06180 | 9899 ft | 311 kts | 79° |
| 2026-04-17 12:28 | 51.22635 | -0.02760 | 10430 ft | 320 kts | 79° |
| 2026-04-17 12:28 | 51.23100 | 0.00808 | 10786 ft | 336 kts | 79° |
| 2026-04-17 12:28 | 51.23584 | 0.04540 | 11151 ft | 351 kts | 79° |
| 2026-04-17 12:29 | 51.24082 | 0.08381 | 11518 ft | 365 kts | 79° |
| 2026-04-17 12:29 | 51.24611 | 0.12477 | 11887 ft | 379 kts | 79° |
| 2026-04-17 12:29 | 51.25142 | 0.16607 | 12249 ft | 391 kts | 80° |
| 2026-04-17 12:29 | 51.25514 | 0.20950 | 12591 ft | 399 kts | 94° |
| 2026-04-17 12:30 | 51.25272 | 0.25379 | 12760 ft | 403 kts | 99° |
| 2026-04-17 12:30 | 51.24951 | 0.29822 | 13462 ft | 404 kts | 99° |
| 2026-04-17 12:30 | 51.24607 | 0.34291 | 14058 ft | 406 kts | 100° |
| 2026-04-17 12:30 | 51.24253 | 0.38778 | 14620 ft | 410 kts | 100° |
| 2026-04-17 12:31 | 51.23893 | 0.43310 | 15176 ft | 414 kts | 100° |
| 2026-04-17 12:31 | 51.23530 | 0.47886 | 15726 ft | 417 kts | 100° |
| 2026-04-17 12:31 | 51.23165 | 0.52488 | 16258 ft | 421 kts | 100° |
| 2026-04-17 12:31 | 51.22796 | 0.57136 | 16808 ft | 424 kts | 100° |
| 2026-04-17 12:32 | 51.22424 | 0.61819 | 17392 ft | 427 kts | 100° |
| 2026-04-17 12:32 | 51.22048 | 0.66544 | 17973 ft | 430 kts | 100° |
| 2026-04-17 12:32 | 51.21667 | 0.71300 | 18484 ft | 434 kts | 101° |
| 2026-04-17 12:32 | 51.21282 | 0.76079 | 18986 ft | 437 kts | 101° |
| 2026-04-17 12:33 | 51.20892 | 0.80905 | 19500 ft | 440 kts | 101° |
| 2026-04-17 12:33 | 51.20497 | 0.85759 | 20152 ft | 443 kts | 101° |
| 2026-04-17 12:33 | 51.20097 | 0.90647 | 20598 ft | 446 kts | 101° |
| 2026-04-17 12:33 | 51.19693 | 0.95570 | 21051 ft | 449 kts | 101° |
| 2026-04-17 12:34 | 51.19283 | 1.00525 | 21480 ft | 452 kts | 101° |
| 2026-04-17 12:34 | 51.18869 | 1.05511 | 21899 ft | 455 kts | 101° |
| 2026-04-17 12:34 | 51.18450 | 1.10530 | 22333 ft | 458 kts | 101° |
| 2026-04-17 12:34 | 51.18026 | 1.15580 | 22759 ft | 461 kts | 101° |
| 2026-04-17 12:35 | 51.17598 | 1.20656 | 23163 ft | 464 kts | 101° |
| 2026-04-17 12:35 | 51.17165 | 1.25774 | 23556 ft | 467 kts | 101° |
| 2026-04-17 12:35 | 51.16727 | 1.30920 | 23915 ft | 470 kts | 101° |
| 2026-04-17 12:35 | 51.16288 | 1.36096 | 24259 ft | 473 kts | 100° |
| 2026-04-17 12:37 | 51.14474 | 1.73378 | 26559 ft | 490 kts | 97° |
| 2026-04-17 12:37 | 51.14198 | 1.78796 | 26861 ft | 493 kts | 97° |
| 2026-04-17 12:38 | 51.13918 | 1.84251 | 27160 ft | 495 kts | 97° |
| 2026-04-17 12:38 | 51.13635 | 1.89724 | 27460 ft | 497 kts | 97° |
| 2026-04-17 12:38 | 51.13350 | 1.95227 | 27755 ft | 499 kts | 97° |
| 2026-04-17 12:38 | 51.13065 | 2.00667 | 28045 ft | 501 kts | 97° |
| 2026-04-17 12:39 | 51.12767 | 2.06295 | 28340 ft | 503 kts | 97° |
| 2026-04-17 12:39 | 51.12471 | 2.11845 | 28698 ft | 504 kts | 97° |
| 2026-04-17 12:39 | 51.12178 | 2.17305 | 29145 ft | 502 kts | 97° |
| 2026-04-17 12:39 | 51.11879 | 2.22829 | 29636 ft | 500 kts | 97° |
| 2026-04-17 12:40 | 51.11579 | 2.28334 | 30062 ft | 499 kts | 97° |
| 2026-04-17 12:40 | 51.11276 | 2.33832 | 30430 ft | 498 kts | 97° |
| 2026-04-17 12:40 | 51.10971 | 2.39325 | 30756 ft | 498 kts | 97° |
| 2026-04-17 12:40 | 51.10664 | 2.44807 | 31115 ft | 496 kts | 96° |
| 2026-04-17 12:41 | 51.10356 | 2.50263 | 31481 ft | 495 kts | 96° |
| 2026-04-17 12:41 | 51.10047 | 2.55715 | 31823 ft | 494 kts | 96° |
| 2026-04-17 12:41 | 51.09736 | 2.61145 | 32128 ft | 494 kts | 96° |
| 2026-04-17 12:41 | 51.09302 | 2.66561 | 32444 ft | 492 kts | 103° |
| 2026-04-17 12:42 | 51.08450 | 2.71805 | 32777 ft | 489 kts | 108° |
| 2026-04-17 12:42 | 51.07493 | 2.76993 | 33080 ft | 488 kts | 108° |
| 2026-04-17 12:42 | 51.06514 | 2.82160 | 33366 ft | 488 kts | 108° |
| 2026-04-17 12:42 | 51.05533 | 2.87324 | 33653 ft | 488 kts | 108° |
| 2026-04-17 12:43 | 51.04562 | 2.92486 | 33947 ft | 487 kts | 108° |
| 2026-04-17 12:43 | 51.03602 | 2.97638 | 34248 ft | 486 kts | 108° |
| 2026-04-17 12:43 | 51.02650 | 3.02790 | 34507 ft | 485 kts | 107° |
| 2026-04-17 12:43 | 51.01703 | 3.07927 | 34743 ft | 485 kts | 107° |
| 2026-04-17 12:44 | 51.00756 | 3.13061 | 34953 ft | 485 kts | 107° |
| 2026-04-17 12:44 | 50.99808 | 3.18198 | 35160 ft | 484 kts | 107° |
| 2026-04-17 12:44 | 50.98858 | 3.23321 | 35183 ft | 485 kts | 107° |
| 2026-04-17 12:45 | 50.96948 | 3.33584 | 35198 ft | 484 kts | 107° |
| 2026-04-17 12:45 | 50.95032 | 3.43808 | 35202 ft | 484 kts | 107° |
| 2026-04-17 12:46 | 50.93102 | 3.54051 | 35197 ft | 485 kts | 107° |
| 2026-04-17 12:46 | 50.91163 | 3.64286 | 35198 ft | 485 kts | 107° |
| 2026-04-17 12:47 | 50.89212 | 3.74531 | 35213 ft | 485 kts | 107° |
| 2026-04-17 12:47 | 50.87253 | 3.84761 | 35212 ft | 486 kts | 107° |
| 2026-04-17 12:48 | 50.85280 | 3.95005 | 35213 ft | 486 kts | 107° |
| 2026-04-17 12:48 | 50.83309 | 4.05190 | 35206 ft | 483 kts | 107° |
| 2026-04-17 12:49 | 50.81332 | 4.15350 | 35216 ft | 484 kts | 107° |
| 2026-04-17 12:49 | 50.79357 | 4.25442 | 35216 ft | 484 kts | 107° |
| 2026-04-17 12:50 | 50.77362 | 4.35585 | 35213 ft | 483 kts | 107° |
| 2026-04-17 12:50 | 50.75360 | 4.45710 | 35211 ft | 483 kts | 107° |
| 2026-04-17 12:51 | 50.73349 | 4.55829 | 35221 ft | 483 kts | 107° |
| 2026-04-17 12:51 | 50.71328 | 4.65950 | 35217 ft | 484 kts | 107° |
| 2026-04-17 12:52 | 50.69295 | 4.76074 | 35219 ft | 483 kts | 107° |
| 2026-04-17 12:52 | 50.67604 | 4.84467 | 35222 ft | 483 kts | 107° |